Decoded Metar for YSNF (NORFOLK ISLAND in AUSTRALIA) (IATA:NLK) | Meteo·Mobile Aviation Weather
aviador You're here:

YSNF Decoded Metar

NORFOLK ISLAND in AUSTRALIA
Report Time2019-04-18 20:24:00
UTC Time2019-04-18 20:26:54
Flight Rules mvfr MVFR
Wind090° at 16 Gusting to 26 kt
W.Decomp.*RWY 11: 13.1 kt HW 9.2 kt LCW
RWY 04: 13.1 kt HW 9.2 kt RCW
Visibility9999 m
Phenomena:N/A
Clouds:Scattered 021 Hf
Broken 024 Hf
Broken 030 Hf
Expected CloudBase > 1,600 ft AGL from Temp-Dew spread
Ceiling2,400 ft
Temp21°C (ISA +7)
Dew Point17°C (78% RH)
AAT17.6°C
QNH1025 hPa
Density Alt997 ft
Elevation358 ft
Report Wrong Elevation
Raw Report
SPECI YSNF 182024Z AUTO 09016G26KT 9999 // SCT021 BKN024 BKN030 21/17 Q1025=

Extra information for YSNF:More info

Metar Taf Metar & Taf Last 4 Metars F.Rules Stats Wind Profile Meteogram Temp Stats Airport Information Weather charts Add Link Nearby VenuesMetar ALERT Operation Metar Decoded Social comments